Time;durP1;ratioP1;P1;durP2;ratioP2;P2;SDS_P1;SDS_P2;PMS_P1;PMS_P2;Temp;Humidity;BMP_temperature;BMP_pressure;BME280_temperature;BME280_humidity;BME280_pressure;Samples;Min_cycle;Max_cycle;Signal;HPM_P1;HPM_P2
2021/03/17 00:02:15;;;;;;;4.40;1.70;;;5.40;99.70;;;;;;5087301;28;20055;-87
2021/03/17 00:04:41;;;;;;;3.40;1.60;;;5.40;99.90;;;;;;5086145;28;20045;-87
2021/03/17 00:07:07;;;;;;;4.35;1.67;;;5.50;99.90;;;;;;5086183;28;20051;-87
2021/03/17 00:09:32;;;;;;;5.22;2.00;;;5.50;99.90;;;;;;5099621;28;20115;-88
2021/03/17 00:11:58;;;;;;;2.75;1.50;;;5.50;99.80;;;;;;5104688;28;20063;-88
2021/03/17 00:14:24;;;;;;;3.47;1.50;;;5.50;99.70;;;;;;5101337;28;20051;-88
2021/03/17 00:16:50;;;;;;;4.03;1.30;;;5.60;99.60;;;;;;5085688;28;20047;-87
2021/03/17 00:19:16;;;;;;;2.45;1.38;;;5.60;99.90;;;;;;5094387;28;20051;-88
2021/03/17 00:21:42;;;;;;;2.58;1.40;;;5.50;99.80;;;;;;5098353;28;20479;-88
2021/03/17 00:24:08;;;;;;;4.38;1.75;;;5.50;99.70;;;;;;5086702;28;20070;-88
2021/03/17 00:26:34;;;;;;;2.95;1.30;;;5.50;99.80;;;;;;5097013;28;20079;-88
2021/03/17 00:29:00;;;;;;;3.90;1.38;;;5.40;99.90;;;;;;5091569;28;20045;-87
2021/03/17 00:31:26;;;;;;;3.00;1.17;;;5.50;99.60;;;;;;5105249;28;20101;-88
2021/03/17 00:33:51;;;;;;;4.03;1.50;;;5.50;99.70;;;;;;5091340;28;20049;-88
2021/03/17 00:36:17;;;;;;;5.72;1.70;;;5.50;99.70;;;;;;5097451;28;20560;-88
2021/03/17 00:38:46;;;;;;;4.95;1.70;;;5.50;99.60;;;;;;5087035;28;20519;-88
2021/03/17 00:41:12;;;;;;;4.00;1.90;;;5.40;99.90;;;;;;5096747;28;20082;-87
2021/03/17 00:43:39;;;;;;;5.03;1.60;;;5.30;99.90;;;;;;5108415;28;20048;-86
2021/03/17 00:46:05;;;;;;;6.80;1.60;;;5.20;99.90;;;;;;5088756;28;20045;-89
2021/03/17 00:48:31;;;;;;;5.97;1.70;;;5.20;99.90;;;;;;5089041;28;20048;-88
2021/03/17 00:50:57;;;;;;;4.22;2.05;;;5.30;99.90;;;;;;5089076;28;20064;-88
2021/03/17 00:53:22;;;;;;;5.40;1.70;;;5.40;99.90;;;;;;5094069;28;20044;-88
2021/03/17 00:55:48;;;;;;;6.30;1.80;;;5.30;99.90;;;;;;5095488;28;20151;-88
2021/03/17 00:58:14;;;;;;;6.22;1.88;;;5.20;99.90;;;;;;5095592;28;20111;-88
2021/03/17 01:00:41;;;;;;;10.38;1.85;;;5.20;99.90;;;;;;5089535;28;20045;-88
2021/03/17 01:03:07;;;;;;;4.93;1.58;;;5.10;99.90;;;;;;5092870;28;20037;-87
2021/03/17 01:05:34;;;;;;;7.72;1.95;;;5.10;99.90;;;;;;5103153;28;20090;-88
2021/03/17 01:08:00;;;;;;;6.45;1.40;;;5.10;99.90;;;;;;5101431;28;20048;-88
2021/03/17 01:10:44;;;;;;;5.75;1.30;;;5.10;99.90;;;;;;5089306;28;20053;-88
2021/03/17 01:13:10;;;;;;;6.20;1.65;;;5.10;99.90;;;;;;5088491;28;20049;-87
2021/03/17 01:15:36;;;;;;;4.80;1.55;;;5.20;99.80;;;;;;5105204;28;20046;-88
2021/03/17 01:18:03;;;;;;;7.28;1.52;;;5.20;99.60;;;;;;5095278;28;20056;-87
2021/03/17 01:20:30;;;;;;;4.20;1.50;;;5.20;99.70;;;;;;5099318;28;20048;-87
2021/03/17 01:22:57;;;;;;;4.68;1.30;;;5.20;99.60;;;;;;5088208;28;20103;-87
2021/03/17 01:25:27;;;;;;;4.50;1.63;;;5.20;99.60;;;;;;5091985;28;20116;-87
2021/03/17 01:27:53;;;;;;;5.13;1.40;;;5.20;99.60;;;;;;5094501;28;20040;-87
2021/03/17 01:30:26;;;;;;;7.70;1.42;;;5.30;99.40;;;;;;5092397;28;20059;-87
2021/03/17 01:32:52;;;;;;;5.95;1.50;;;5.40;99.50;;;;;;5111760;28;20082;-87
2021/03/17 01:35:19;;;;;;;5.78;1.45;;;5.40;99.40;;;;;;5101000;28;20052;-87
2021/03/17 01:37:45;;;;;;;8.07;1.63;;;5.40;99.00;;;;;;5102597;28;20044;-88
2021/03/17 01:40:13;;;;;;;8.27;1.63;;;5.60;98.70;;;;;;5104508;28;20086;-87
2021/03/17 01:42:39;;;;;;;4.07;1.90;;;5.70;98.00;;;;;;5105463;28;20082;-87
2021/03/17 01:45:13;;;;;;;3.60;1.80;;;5.80;97.50;;;;;;5091702;28;20040;-88
2021/03/17 01:47:40;;;;;;;6.82;2.42;;;5.90;97.30;;;;;;5099032;28;20040;-88
2021/03/17 01:50:14;;;;;;;6.45;2.10;;;5.80;97.30;;;;;;5090440;28;20064;-87
2021/03/17 01:52:40;;;;;;;6.38;1.60;;;5.80;97.10;;;;;;5088166;28;20052;-88
2021/03/17 01:55:07;;;;;;;4.95;1.33;;;5.80;97.30;;;;;;5096346;28;20131;-88
2021/03/17 01:57:34;;;;;;;3.53;1.48;;;5.80;96.80;;;;;;5108380;28;20155;-88
2021/03/17 02:00:05;;;;;;;6.43;1.70;;;5.60;97.40;;;;;;5094503;28;20062;-88
2021/03/17 02:02:31;;;;;;;4.87;1.67;;;5.60;97.60;;;;;;5108314;28;20044;-88
2021/03/17 02:04:57;;;;;;;4.70;1.83;;;5.60;97.80;;;;;;5103953;28;20325;-88
2021/03/17 02:07:23;;;;;;;5.03;1.40;;;5.60;98.10;;;;;;5088067;28;20493;-88
2021/03/17 02:09:49;;;;;;;4.70;1.95;;;5.50;98.50;;;;;;5088240;28;20556;-88
2021/03/17 02:12:34;;;;;;;5.70;2.13;;;5.50;98.00;;;;;;5098334;28;20059;-88
2021/03/17 02:15:35;;;;;;;5.53;2.28;;;5.30;98.50;;;;;;5097474;28;20135;-88
2021/03/17 02:18:09;;;;;;;7.63;1.52;;;5.20;98.90;;;;;;5106025;28;20150;-88
2021/03/17 02:21:07;;;;;;;6.93;1.60;;;5.30;98.50;;;;;;5108056;28;20146;-87
2021/03/17 02:23:49;;;;;;;7.70;1.50;;;5.20;98.60;;;;;;5108374;28;20046;-88
2021/03/17 02:26:51;;;;;;;8.32;1.65;;;5.00;98.80;;;;;;5107411;28;20111;-88
2021/03/17 02:29:54;;;;;;;4.72;1.60;;;5.00;98.90;;;;;;5105005;28;20044;-87
2021/03/17 02:32:32;;;;;;;3.72;1.60;;;4.90;99.00;;;;;;5102372;28;20059;-87
2021/03/17 02:35:03;;;;;;;7.00;1.50;;;4.70;99.10;;;;;;5106891;28;20060;-87
2021/03/17 02:37:31;;;;;;;5.53;1.25;;;4.70;99.20;;;;;;5106986;28;20062;-87
2021/03/17 02:40:07;;;;;;;5.20;1.38;;;4.60;99.00;;;;;;5107049;28;20151;-87
2021/03/17 02:42:52;;;;;;;3.63;1.40;;;4.50;99.10;;;;;;5107606;28;20118;-87
2021/03/17 02:45:25;;;;;;;7.28;1.40;;;4.10;99.30;;;;;;5102979;28;20044;-87
2021/03/17 02:48:04;;;;;;;9.40;2.00;;;3.90;99.90;;;;;;5107511;28;20028;-87
2021/03/17 02:50:32;;;;;;;5.25;1.63;;;3.70;99.90;;;;;;5107713;28;20058;-87
2021/03/17 02:53:02;;;;;;;4.07;1.52;;;3.60;99.90;;;;;;5091229;28;20116;-87
2021/03/17 02:55:36;;;;;;;5.00;1.95;;;3.50;99.90;;;;;;5095981;28;20049;-87
2021/03/17 02:58:02;;;;;;;7.10;1.60;;;3.40;99.90;;;;;;5104852;28;20584;-87
2021/03/17 03:00:29;;;;;;;9.52;1.80;;;3.40;99.90;;;;;;5095195;28;20044;-88
2021/03/17 03:02:58;;;;;;;5.65;2.03;;;3.50;99.90;;;;;;5095954;28;20041;-87
2021/03/17 03:05:26;;;;;;;6.90;1.60;;;3.50;99.90;;;;;;5097778;28;20074;-87
2021/03/17 03:07:54;;;;;;;8.75;2.58;;;3.50;99.90;;;;;;5088171;28;20104;-88
2021/03/17 03:10:22;;;;;;;8.65;1.90;;;3.60;99.90;;;;;;5086195;28;20045;-87
2021/03/17 03:12:49;;;;;;;8.20;1.83;;;3.60;99.90;;;;;;5092835;28;20043;-87
2021/03/17 03:15:18;;;;;;;6.00;1.90;;;3.60;99.90;;;;;;5089351;28;20063;-87
2021/03/17 03:17:45;;;;;;;9.05;2.15;;;3.70;99.90;;;;;;5099978;28;20098;-88
2021/03/17 03:20:16;;;;;;;6.30;1.73;;;3.70;99.90;;;;;;5096965;28;20047;-87
2021/03/17 03:22:44;;;;;;;7.75;1.95;;;3.70;99.90;;;;;;5087738;28;20075;-87
2021/03/17 03:25:11;;;;;;;8.05;1.95;;;3.80;99.90;;;;;;5085806;28;20053;-88
2021/03/17 03:27:38;;;;;;;6.07;1.60;;;3.80;99.90;;;;;;5087139;28;20044;-88
2021/03/17 03:30:17;;;;;;;8.50;2.38;;;3.90;99.90;;;;;;5085774;28;20051;-88
2021/03/17 03:32:44;;;;;;;7.53;1.80;;;3.90;99.90;;;;;;5097048;28;20062;-87
2021/03/17 03:35:13;;;;;;;7.38;1.88;;;4.00;99.90;;;;;;5099477;28;20405;-87
2021/03/17 03:37:39;;;;;;;8.38;1.58;;;4.00;99.90;;;;;;5085596;28;20040;-88
2021/03/17 03:40:15;;;;;;;8.40;1.90;;;4.00;99.90;;;;;;5099309;28;20051;-86
2021/03/17 03:42:42;;;;;;;7.70;2.03;;;4.10;99.90;;;;;;5093176;28;20044;-88
2021/03/17 03:45:11;;;;;;;7.80;2.17;;;4.00;99.90;;;;;;5092225;28;20040;-87
2021/03/17 03:47:37;;;;;;;4.18;1.98;;;4.10;99.90;;;;;;5098477;28;20131;-87
2021/03/17 03:50:06;;;;;;;9.07;1.85;;;4.10;99.90;;;;;;5087120;28;20055;-88
2021/03/17 03:52:40;;;;;;;6.55;1.77;;;4.20;99.90;;;;;;5098101;28;20043;-87
2021/03/17 03:55:13;;;;;;;10.30;1.88;;;4.20;99.90;;;;;;5089762;28;20127;-87
2021/03/17 03:57:45;;;;;;;10.35;2.17;;;4.20;99.90;;;;;;5085658;28;20560;-87
2021/03/17 04:00:13;;;;;;;5.32;1.48;;;4.20;99.90;;;;;;5086031;28;20051;-87
2021/03/17 04:02:45;;;;;;;6.78;1.50;;;4.40;99.90;;;;;;5087561;28;20052;-87
2021/03/17 04:05:15;;;;;;;3.50;1.20;;;4.60;99.90;;;;;;5085438;28;20040;-87
2021/03/17 04:07:44;;;;;;;;;;;4.60;99.70;;;;;;5067687;28;20523;-87
2021/03/17 04:10:13;;;;;;;5.20;1.55;;;4.60;99.50;;;;;;5099158;28;19924;-87
2021/03/17 04:12:40;;;;;;;7.35;1.40;;;4.60;99.40;;;;;;5094790;28;20051;-87
2021/03/17 04:15:08;;;;;;;4.50;1.30;;;4.60;99.60;;;;;;5095429;28;20060;-87
2021/03/17 04:17:37;;;;;;;4.05;1.55;;;4.50;99.70;;;;;;5091062;28;20137;-87
2021/03/17 04:20:09;;;;;;;3.38;1.30;;;4.50;99.90;;;;;;5096421;28;20111;-87
2021/03/17 04:22:38;;;;;;;7.63;1.52;;;4.50;99.80;;;;;;5085330;28;20061;-87
2021/03/17 04:25:09;;;;;;;5.68;1.65;;;4.50;99.80;;;;;;5099220;28;20083;-88
2021/03/17 04:27:36;;;;;;;8.15;1.77;;;4.50;99.90;;;;;;5085116;28;20056;-87
2021/03/17 04:30:05;;;;;;;6.80;1.40;;;4.40;99.90;;;;;;5084567;28;20074;-87
2021/03/17 04:32:34;;;;;;;7.03;1.70;;;4.40;99.90;;;;;;5101540;28;20048;-87
2021/03/17 04:35:01;;;;;;;4.85;1.55;;;4.30;99.90;;;;;;5090095;28;20530;-87
2021/03/17 04:37:29;;;;;;;7.25;1.67;;;4.30;99.90;;;;;;5092769;28;20116;-87
2021/03/17 04:39:56;;;;;;;5.43;1.30;;;4.40;99.90;;;;;;5089655;28;20056;-87
2021/03/17 04:42:23;;;;;;;10.35;3.13;;;4.30;99.90;;;;;;5090308;28;20411;-87
2021/03/17 04:44:49;;;;;;;4.43;1.45;;;4.40;99.90;;;;;;5090351;28;20107;-87
2021/03/17 04:47:16;;;;;;;4.15;1.50;;;4.40;99.90;;;;;;5084666;28;20075;-87
2021/03/17 04:49:45;;;;;;;5.85;1.80;;;4.40;99.80;;;;;;5084812;28;20047;-87
2021/03/17 04:52:13;;;;;;;9.50;2.38;;;4.30;99.80;;;;;;5084574;28;20055;-87
2021/03/17 04:54:39;;;;;;;6.43;1.70;;;4.30;99.90;;;;;;5085722;28;20049;-87
2021/03/17 04:57:10;;;;;;;4.60;1.40;;;4.30;99.90;;;;;;5085655;28;20108;-87
2021/03/17 04:59:38;;;;;;;4.93;1.55;;;4.30;99.80;;;;;;5084768;28;20523;-87
2021/03/17 05:02:04;;;;;;;3.22;1.70;;;4.30;99.90;;;;;;5091882;28;20089;-87
2021/03/17 05:04:32;;;;;;;5.35;1.98;;;4.30;99.80;;;;;;5089341;28;20052;-87
2021/03/17 05:06:58;;;;;;;6.00;1.73;;;4.30;99.70;;;;;;5084925;28;20076;-87
2021/03/17 05:09:25;;;;;;;7.40;1.77;;;4.40;99.20;;;;;;5085942;28;20037;-88
2021/03/17 05:11:51;;;;;;;4.30;1.60;;;4.40;99.40;;;;;;5099919;28;20135;-87
2021/03/17 05:14:18;;;;;;;11.35;1.70;;;4.40;99.60;;;;;;5090425;28;20056;-87
2021/03/17 05:16:45;;;;;;;5.00;1.27;;;4.40;99.60;;;;;;5083015;28;20036;-87
2021/03/17 05:19:12;;;;;;;5.18;1.50;;;4.50;99.60;;;;;;5090568;28;20051;-87
2021/03/17 05:21:40;;;;;;;3.58;1.30;;;4.50;99.40;;;;;;5103147;28;20085;-87
2021/03/17 05:24:07;;;;;;;5.22;1.50;;;4.50;99.20;;;;;;5104232;28;20059;-87
2021/03/17 05:26:34;;;;;;;6.90;1.85;;;4.50;99.00;;;;;;5092126;28;20090;-87
2021/03/17 05:29:01;;;;;;;5.68;1.42;;;4.50;99.00;;;;;;5089042;28;20163;-87
2021/03/17 05:31:28;;;;;;;7.38;2.13;;;4.60;99.00;;;;;;5108107;28;20104;-87
2021/03/17 05:33:54;;;;;;;6.18;1.30;;;4.50;98.40;;;;;;5094394;28;20072;-87
2021/03/17 05:36:20;;;;;;;6.72;1.70;;;4.70;98.10;;;;;;5100964;28;20055;-87
2021/03/17 05:38:46;;;;;;;5.30;1.13;;;4.60;98.10;;;;;;5088063;28;20111;-87
2021/03/17 05:41:12;;;;;;;6.72;1.83;;;4.70;97.90;;;;;;5102006;28;20119;-87
2021/03/17 05:43:39;;;;;;;4.28;1.50;;;4.70;97.80;;;;;;5089960;28;20055;-88
2021/03/17 05:46:06;;;;;;;5.32;1.50;;;4.60;97.90;;;;;;5087890;28;20044;-87
2021/03/17 05:48:32;;;;;;;6.82;1.30;;;4.60;97.10;;;;;;5087912;28;20063;-87
2021/03/17 05:51:02;;;;;;;5.43;1.30;;;4.40;97.50;;;;;;5087487;28;20041;-87
2021/03/17 05:53:28;;;;;;;6.47;1.30;;;4.40;97.20;;;;;;5093649;28;20044;-87
2021/03/17 05:56:01;;;;;;;5.30;1.25;;;4.30;97.30;;;;;;5102571;28;20297;-87
2021/03/17 05:58:28;;;;;;;5.70;1.30;;;4.30;97.30;;;;;;5089512;28;20166;-86
2021/03/17 06:00:54;;;;;;;5.68;1.63;;;4.30;97.40;;;;;;5089068;28;20053;-87
2021/03/17 06:03:21;;;;;;;5.82;1.30;;;4.30;97.20;;;;;;5098331;28;20071;-85
2021/03/17 06:05:47;;;;;;;5.07;1.70;;;4.30;97.40;;;;;;5116699;28;20048;-77
2021/03/17 06:08:24;;;;;;;4.93;1.10;;;4.20;97.50;;;;;;5103069;28;20036;-75
2021/03/17 06:10:51;;;;;;;3.97;1.35;;;4.10;97.60;;;;;;5107281;28;20044;-74
2021/03/17 06:13:21;;;;;;;6.22;1.35;;;3.90;98.40;;;;;;5107523;28;20040;-70
2021/03/17 06:15:54;;;;;;;4.32;1.35;;;3.80;99.30;;;;;;5104936;28;20098;-77
2021/03/17 06:18:29;;;;;;;6.45;1.80;;;3.80;99.90;;;;;;5104398;28;20104;-79
2021/03/17 06:20:56;;;;;;;5.50;2.17;;;3.80;99.90;;;;;;5105558;28;20040;-78
2021/03/17 06:23:22;;;;;;;2.22;1.27;;;3.80;99.90;;;;;;5106990;28;20085;-78
2021/03/17 06:25:49;;;;;;;5.90;1.60;;;3.80;99.90;;;;;;5105223;28;20063;-77
2021/03/17 06:28:15;;;;;;;8.20;2.10;;;3.70;99.90;;;;;;5105107;28;20052;-76
2021/03/17 06:30:47;;;;;;;6.93;1.40;;;3.80;99.90;;;;;;5102951;28;20055;-79
2021/03/17 06:33:13;;;;;;;5.28;1.80;;;3.80;99.90;;;;;;5103770;28;20061;-75
2021/03/17 06:35:39;;;;;;;6.35;1.70;;;3.80;99.90;;;;;;5105053;28;20048;-74
2021/03/17 06:38:05;;;;;;;5.28;1.40;;;3.80;99.90;;;;;;5102571;28;20048;-78
2021/03/17 06:40:33;;;;;;;5.55;1.60;;;3.90;99.90;;;;;;5104441;28;20036;-77
2021/03/17 06:43:17;;;;;;;5.25;1.17;;;3.90;99.40;;;;;;5099461;28;20052;-76
2021/03/17 06:45:47;;;;;;;5.88;1.80;;;4.00;99.80;;;;;;5095399;28;20134;-77
2021/03/17 06:48:32;;;;;;;9.00;1.70;;;3.90;99.90;;;;;;5098867;28;20048;-74
2021/03/17 06:51:04;;;;;;;8.00;1.52;;;4.00;99.90;;;;;;5092319;28;20733;-80
2021/03/17 06:53:43;;;;;;;5.97;1.58;;;4.10;99.90;;;;;;5091799;28;20040;-72
2021/03/17 06:56:17;;;;;;;4.75;1.60;;;4.10;99.90;;;;;;5059473;28;20048;-75
2021/03/17 06:58:54;;;;;;;4.55;1.45;;;4.10;99.90;;;;;;5093101;28;20059;-75
2021/03/17 07:01:37;;;;;;;8.07;1.77;;;3.90;99.90;;;;;;5092210;28;20105;-75
2021/03/17 07:04:10;;;;;;;5.82;1.50;;;3.80;99.90;;;;;;5098812;28;20105;-80
2021/03/17 07:06:41;;;;;;;8.52;1.90;;;3.80;99.90;;;;;;5085963;28;20104;-78
2021/03/17 07:09:25;;;;;;;12.52;2.58;;;3.90;99.90;;;;;;5099205;28;20060;-77
2021/03/17 07:12:04;;;;;;;4.80;1.75;;;4.10;99.90;;;;;;5061914;28;20039;-75
2021/03/17 07:14:40;;;;;;;3.75;1.30;;;4.20;99.90;;;;;;5099526;28;20079;-77
2021/03/17 07:17:25;;;;;;;5.97;1.63;;;4.50;99.70;;;;;;5099020;28;20044;-80
2021/03/17 07:19:51;;;;;;;6.05;1.30;;;4.70;98.60;;;;;;5084007;28;20047;-80
2021/03/17 07:22:17;;;;;;;5.70;1.20;;;4.70;98.00;;;;;;5103180;28;20581;-76
2021/03/17 07:24:45;;;;;;;5.40;1.23;;;4.70;97.70;;;;;;5094124;28;20044;-75
2021/03/17 07:27:19;;;;;;;5.70;1.88;;;4.70;97.60;;;;;;5095493;28;20068;-75
2021/03/17 07:30:06;;;;;;;7.55;1.30;;;4.80;96.70;;;;;;5081057;28;20046;-75
2021/03/17 07:32:58;;;;;;;6.28;1.38;;;4.90;96.60;;;;;;5108233;28;20040;-75
2021/03/17 07:35:25;;;;;;;5.80;1.25;;;4.80;96.80;;;;;;5079082;28;20138;-74
2021/03/17 07:38:11;;;;;;;6.18;2.10;;;4.80;97.00;;;;;;5104476;28;20568;-74
2021/03/17 07:40:43;;;;;;;9.57;1.50;;;4.90;97.40;;;;;;5100164;27;20051;-73
2021/03/17 07:43:10;;;;;;;7.57;1.73;;;4.90;97.50;;;;;;5101543;28;20048;-74
2021/03/17 07:45:37;;;;;;;6.18;1.38;;;5.00;97.30;;;;;;5079634;27;20043;-73
2021/03/17 07:48:13;;;;;;;7.47;1.48;;;5.10;96.90;;;;;;5093152;28;20040;-74
2021/03/17 07:50:40;;;;;;;10.05;1.60;;;5.30;96.60;;;;;;5096408;28;20122;-74
2021/03/17 07:53:08;;;;;;;7.65;1.95;;;5.30;96.20;;;;;;5096036;28;20048;-76
2021/03/17 07:55:37;;;;;;;7.60;1.50;;;5.50;95.90;;;;;;5076149;28;20066;-73
2021/03/17 07:58:04;;;;;;;8.48;1.60;;;5.50;95.00;;;;;;5096527;28;20048;-73
2021/03/17 08:00:30;;;;;;;10.05;1.92;;;5.60;95.00;;;;;;5080699;28;20071;-74
2021/03/17 08:02:57;;;;;;;12.50;1.92;;;5.50;95.10;;;;;;5097978;28;20172;-73
2021/03/17 08:05:23;;;;;;;8.70;1.80;;;5.60;95.70;;;;;;5096378;28;20052;-73
2021/03/17 08:07:50;;;;;;;10.43;2.58;;;5.80;95.30;;;;;;5106653;28;20040;-75
2021/03/17 08:10:15;;;;;;;8.75;2.10;;;5.80;95.30;;;;;;5096019;28;21108;-74
2021/03/17 08:12:43;;;;;;;11.25;2.92;;;5.80;94.90;;;;;;5107282;28;20239;-74
2021/03/17 08:15:12;;;;;;;7.10;1.40;;;5.90;94.10;;;;;;5092720;28;20077;-75
2021/03/17 08:17:38;;;;;;;9.15;1.65;;;6.00;94.30;;;;;;5105998;28;20043;-75
2021/03/17 08:20:23;;;;;;;6.95;1.60;;;6.10;93.80;;;;;;5092452;28;20051;-75
2021/03/17 08:22:51;;;;;;;8.00;1.67;;;6.30;93.60;;;;;;5104009;28;20048;-82
2021/03/17 08:25:42;;;;;;;7.30;1.48;;;6.40;93.00;;;;;;5093943;28;20051;-78
2021/03/17 08:28:23;;;;;;;12.70;1.60;;;6.50;92.80;;;;;;5095436;28;20090;-74
2021/03/17 08:30:52;;;;;;;14.82;1.90;;;6.70;92.40;;;;;;5089436;28;20146;-70
2021/03/17 08:33:36;;;;;;;8.13;1.83;;;6.70;92.00;;;;;;5101154;28;20047;-73
2021/03/17 08:36:06;;;;;;;7.30;1.42;;;6.80;92.10;;;;;;5083715;28;20051;-73
2021/03/17 08:38:53;;;;;;;13.27;1.70;;;7.00;91.70;;;;;;5101834;28;20047;-73
2021/03/17 08:41:36;;;;;;;9.18;1.70;;;7.10;92.10;;;;;;5099006;28;20066;-72
2021/03/17 08:44:14;;;;;;;9.55;1.38;;;7.30;90.80;;;;;;5096164;28;20050;-72
2021/03/17 08:46:40;;;;;;;11.07;1.42;;;7.50;90.10;;;;;;5094513;28;20051;-72
2021/03/17 08:49:07;;;;;;;10.00;1.63;;;7.50;89.50;;;;;;5080728;28;20051;-73
2021/03/17 08:51:46;;;;;;;7.72;1.33;;;7.50;90.20;;;;;;5085686;28;20028;-73
2021/03/17 08:54:30;;;;;;;8.63;1.45;;;7.80;90.00;;;;;;5082193;28;20071;-73
2021/03/17 08:57:07;;;;;;;9.13;2.13;;;7.90;89.90;;;;;;5055416;28;20414;-74
2021/03/17 08:59:46;;;;;;;10.38;1.90;;;7.90;86.30;;;;;;5069799;28;20041;-74
2021/03/17 09:02:27;;;;;;;7.82;1.48;;;8.00;88.60;;;;;;5070371;28;20033;-74
2021/03/17 09:05:00;;;;;;;6.72;1.77;;;8.00;90.80;;;;;;5061896;28;20048;-77
2021/03/17 09:07:28;;;;;;;7.80;1.75;;;8.20;86.00;;;;;;5079289;28;21014;-75
2021/03/17 09:10:07;;;;;;;7.88;1.58;;;8.10;83.00;;;;;;5068986;28;20121;-73
2021/03/17 09:12:33;;;;;;;9.13;1.63;;;7.90;84.20;;;;;;5075942;28;20040;-73
2021/03/17 09:15:13;;;;;;;8.45;1.55;;;7.80;85.40;;;;;;5072701;28;20551;-73
2021/03/17 09:17:50;;;;;;;;;;;7.70;84.00;;;;;;5090939;28;20138;-74
2021/03/17 09:20:25;;;;;;;5.25;1.52;;;7.70;83.30;;;;;;5087403;28;19942;-73
2021/03/17 09:23:15;;;;;;;5.90;1.52;;;7.90;80.30;;;;;;5101226;28;20078;-71
2021/03/17 09:25:55;;;;;;;5.40;1.20;;;8.30;78.50;;;;;;5090392;28;20071;-74
2021/03/17 09:28:29;;;;;;;5.50;1.30;;;8.50;75.40;;;;;;5084287;28;20049;-74
2021/03/17 09:30:56;;;;;;;6.75;1.20;;;8.60;76.20;;;;;;5081296;28;20044;-73
2021/03/17 09:33:29;;;;;;;6.78;1.15;;;8.50;75.90;;;;;;5079959;28;20062;-71
2021/03/17 09:35:58;;;;;;;8.90;1.45;;;8.40;77.70;;;;;;5079585;28;20101;-73
2021/03/17 09:38:30;;;;;;;4.68;1.60;;;8.40;77.10;;;;;;5084640;28;20063;-71
2021/03/17 09:41:08;;;;;;;6.15;1.30;;;8.20;77.70;;;;;;5079791;28;20480;-76
2021/03/17 09:43:41;;;;;;;6.57;1.60;;;8.10;79.40;;;;;;5079776;28;20267;-79
2021/03/17 09:46:19;;;;;;;6.05;1.52;;;7.90;82.20;;;;;;5076985;28;20056;-78
2021/03/17 09:48:47;;;;;;;5.82;1.27;;;8.10;85.30;;;;;;5082577;28;20040;-77
2021/03/17 09:51:17;;;;;;;8.93;2.00;;;8.20;84.50;;;;;;5066309;28;20120;-78
2021/03/17 09:53:48;;;;;;;16.60;1.90;;;8.10;84.10;;;;;;5051699;28;20041;-79
2021/03/17 09:56:14;;;;;;;10.02;1.52;;;8.10;84.00;;;;;;5062037;28;20040;-78
2021/03/17 09:58:41;;;;;;;7.93;1.70;;;8.20;83.80;;;;;;5065666;28;20437;-79
2021/03/17 10:01:13;;;;;;;11.52;1.65;;;8.00;83.20;;;;;;5073882;28;20102;-77
2021/03/17 10:03:44;;;;;;;10.85;1.65;;;8.00;84.00;;;;;;5084955;28;20036;-79
2021/03/17 10:06:10;;;;;;;7.07;1.58;;;8.10;84.90;;;;;;5076305;28;20064;-79
2021/03/17 10:08:36;;;;;;;7.65;1.50;;;8.10;86.30;;;;;;5063844;28;20100;-78
2021/03/17 10:11:03;;;;;;;5.03;1.20;;;8.20;86.00;;;;;;5051753;28;20064;-78
2021/03/17 10:13:35;;;;;;;5.13;1.23;;;8.60;79.20;;;;;;5065557;28;20045;-79
2021/03/17 10:16:01;;;;;;;6.10;1.20;;;8.80;72.60;;;;;;5059153;28;20109;-78
2021/03/17 10:18:28;;;;;;;7.95;1.60;;;8.90;74.30;;;;;;5065707;28;20418;-79
2021/03/17 10:20:56;;;;;;;7.70;1.40;;;8.80;79.60;;;;;;5067496;28;20048;-79
2021/03/17 10:23:22;;;;;;;6.70;1.25;;;8.90;77.60;;;;;;5066391;28;20353;-78
2021/03/17 10:25:49;;;;;;;7.00;1.30;;;9.00;72.60;;;;;;5057810;28;20441;-78
2021/03/17 10:28:16;;;;;;;6.57;1.52;;;8.90;72.70;;;;;;5076325;28;20356;-78
2021/03/17 10:30:47;;;;;;;4.32;1.50;;;9.00;71.30;;;;;;5077528;28;20055;-78
2021/03/17 10:33:17;;;;;;;3.85;1.10;;;8.90;70.90;;;;;;5097372;28;20047;-78
2021/03/17 10:35:45;;;;;;;5.18;1.40;;;8.80;75.60;;;;;;5088481;28;20412;-78
2021/03/17 10:38:11;;;;;;;3.28;1.05;;;8.80;73.20;;;;;;5100101;28;20075;-78
2021/03/17 10:40:38;;;;;;;4.95;1.10;;;8.80;72.40;;;;;;5088909;28;20044;-78
2021/03/17 10:43:13;;;;;;;3.90;1.10;;;8.70;73.90;;;;;;5098886;28;20044;-79
2021/03/17 10:45:52;;;;;;;2.97;1.15;;;8.70;76.60;;;;;;5090379;28;20074;-78
2021/03/17 10:48:22;;;;;;;2.55;1.08;;;9.00;74.50;;;;;;5101103;28;20048;-79
2021/03/17 10:50:48;;;;;;;8.32;1.40;;;9.20;73.80;;;;;;5090163;28;20044;-79
2021/03/17 10:53:23;;;;;;;4.00;1.45;;;9.40;72.20;;;;;;5100403;28;20063;-78
2021/03/17 10:55:51;;;;;;;7.70;1.23;;;9.40;72.00;;;;;;5069525;28;20044;-79
2021/03/17 10:58:23;;;;;;;5.50;1.38;;;9.50;76.90;;;;;;5102233;28;20051;-80
2021/03/17 11:00:51;;;;;;;3.08;0.98;;;9.80;70.40;;;;;;5088036;28;20044;-80
2021/03/17 11:03:31;;;;;;;7.80;1.10;;;9.90;70.70;;;;;;5099918;28;20475;-77
2021/03/17 11:06:18;;;;;;;3.55;0.90;;;10.00;70.00;;;;;;5088117;28;20082;-79
2021/03/17 11:09:01;;;;;;;5.53;1.25;;;10.20;69.10;;;;;;5098967;28;20040;-77
2021/03/17 11:11:27;;;;;;;5.63;1.02;;;10.30;67.20;;;;;;5089956;28;20267;-77
2021/03/17 11:13:53;;;;;;;4.28;1.42;;;10.20;69.20;;;;;;5094415;28;20150;-80
2021/03/17 11:16:31;;;;;;;7.70;1.60;;;10.10;68.80;;;;;;5089950;28;20043;-79
2021/03/17 11:18:59;;;;;;;5.20;1.10;;;10.10;70.30;;;;;;5100394;28;20048;-81
2021/03/17 11:21:29;;;;;;;7.70;1.75;;;10.10;67.80;;;;;;5089990;28;20051;-79
2021/03/17 11:24:00;;;;;;;4.63;1.20;;;10.10;68.90;;;;;;5099978;28;20097;-79
2021/03/17 11:26:33;;;;;;;2.30;1.00;;;10.20;67.30;;;;;;5071834;28;20044;-78
2021/03/17 11:29:01;;;;;;;6.07;1.70;;;10.30;64.80;;;;;;5097822;28;20040;-80
2021/03/17 11:31:35;;;;;;;5.78;1.75;;;10.20;70.50;;;;;;5088910;28;20052;-79
2021/03/17 11:34:02;;;;;;;8.98;2.13;;;10.00;69.20;;;;;;5095894;28;20048;-79
2021/03/17 11:36:29;;;;;;;5.47;1.20;;;10.00;69.20;;;;;;5107731;27;20045;-79
2021/03/17 11:38:57;;;;;;;3.88;1.23;;;10.00;73.00;;;;;;5082647;28;20051;-80
2021/03/17 11:41:24;;;;;;;8.40;1.50;;;10.10;67.50;;;;;;5096542;28;20055;-81
2021/03/17 11:43:51;;;;;;;5.28;1.45;;;10.20;69.00;;;;;;5103716;28;20036;-75
2021/03/17 11:46:18;;;;;;;8.05;1.40;;;10.30;66.90;;;;;;5090383;28;20123;-79
2021/03/17 11:48:45;;;;;;;4.15;1.40;;;10.20;67.40;;;;;;5100992;28;20565;-79
2021/03/17 11:51:12;;;;;;;3.55;1.30;;;10.10;71.80;;;;;;5094490;28;20063;-75
2021/03/17 11:53:38;;;;;;;3.40;1.02;;;10.10;69.50;;;;;;5098313;28;20077;-81
2021/03/17 11:56:06;;;;;;;4.82;1.33;;;10.30;68.70;;;;;;5089971;28;20043;-78
2021/03/17 11:58:34;;;;;;;2.70;1.10;;;10.50;67.50;;;;;;5101856;28;20039;-78
2021/03/17 12:01:02;;;;;;;5.88;1.08;;;10.60;64.00;;;;;;5094929;28;20055;-72
2021/03/17 12:03:28;;;;;;;4.75;1.60;;;10.50;63.60;;;;;;5108502;28;20040;-75
2021/03/17 12:05:54;;;;;;;7.22;1.30;;;10.40;63.80;;;;;;5094029;28;20493;-77
2021/03/17 12:08:20;;;;;;;4.00;1.17;;;10.40;65.30;;;;;;5092412;28;20044;-75
2021/03/17 12:10:49;;;;;;;4.68;1.25;;;10.30;68.40;;;;;;5093242;27;20059;-82
2021/03/17 12:13:15;;;;;;;5.47;1.00;;;10.20;66.40;;;;;;5110876;28;20071;-78
2021/03/17 12:15:41;;;;;;;5.47;0.98;;;10.50;65.50;;;;;;5091521;28;20043;-81
2021/03/17 12:18:07;;;;;;;2.70;0.90;;;10.60;65.60;;;;;;5113321;27;20100;-77
2021/03/17 12:20:33;;;;;;;3.00;1.48;;;10.80;65.40;;;;;;5088944;28;20130;-78
2021/03/17 12:23:00;;;;;;;4.82;1.65;;;11.00;65.40;;;;;;5095311;28;20070;-86
2021/03/17 12:25:26;;;;;;;7.75;1.63;;;11.20;63.30;;;;;;5087168;28;20052;-73
2021/03/17 12:27:52;;;;;;;6.50;1.55;;;11.10;61.00;;;;;;5113681;28;20047;-74
2021/03/17 12:30:21;;;;;;;8.02;1.20;;;10.80;63.80;;;;;;5091517;28;20032;-76
2021/03/17 12:32:49;;;;;;;5.93;1.15;;;10.80;64.80;;;;;;5114513;28;20115;-83
2021/03/17 12:35:16;;;;;;;7.28;1.30;;;11.20;62.70;;;;;;5098953;28;20099;-79
2021/03/17 12:37:44;;;;;;;3.05;0.95;;;11.10;64.30;;;;;;5103184;28;20062;-78
2021/03/17 12:40:14;;;;;;;3.50;1.40;;;11.40;59.60;;;;;;5099575;28;20072;-78
2021/03/17 12:42:41;;;;;;;3.15;1.45;;;11.40;60.00;;;;;;5104764;28;20127;-79
2021/03/17 12:45:08;;;;;;;4.70;1.10;;;11.60;60.40;;;;;;5097865;28;20048;-79
2021/03/17 12:47:35;;;;;;;3.22;1.30;;;11.60;61.70;;;;;;5104241;28;20055;-74
2021/03/17 12:50:05;;;;;;;4.65;0.90;;;11.70;61.20;;;;;;5098168;28;20071;-85
2021/03/17 12:52:31;;;;;;;3.35;1.00;;;12.00;58.40;;;;;;5104073;28;20062;-83
2021/03/17 12:54:57;;;;;;;4.05;0.95;;;12.00;56.70;;;;;;5097154;28;20280;-82
2021/03/17 12:57:23;;;;;;;7.30;1.63;;;12.10;57.90;;;;;;5104761;28;20081;-85
2021/03/17 12:59:49;;;;;;;2.40;1.30;;;12.20;58.10;;;;;;5094351;28;20047;-83
2021/03/17 13:02:15;;;;;;;3.17;0.80;;;12.40;58.30;;;;;;5084176;28;20142;-83
2021/03/17 13:04:40;;;;;;;5.50;1.05;;;13.20;55.30;;;;;;5079306;28;20103;-83
2021/03/17 13:07:06;;;;;;;3.70;0.90;;;14.10;49.50;;;;;;5087118;28;20523;-84
2021/03/17 13:09:32;;;;;;;4.00;1.25;;;14.40;49.20;;;;;;5111869;28;20056;-85
2021/03/17 13:11:58;;;;;;;4.00;1.15;;;14.50;49.30;;;;;;5088951;28;20051;-84